AVA692 SKBO-MROC
Flight info
| Callsign | AVA692 |
|---|---|
| Flight time | 1h 45m |
| Altitude | 33000 |
| Route | TOBKI4R VASIL UL423 ISEBA CUARE3I |
| Aircraft | A339/H-SADE1E2E3GHIJ3J5M1P2RWXY/LB2D1 |
Departure
| Time | 2026-05-06 17:52 |
|---|---|
| Airport | El Dorado International Airport (SKBO) |
Arrival
| Time | 2026-05-06 19:38 |
|---|---|
| Airport | Juan Santamaría International Airport (MROC) |
| Time | Latitude | Longitude | Altitude | Speed | Heading |
|---|---|---|---|---|---|
| 2026-05-06 16:55 | 4.69983 | -74.14121 | 8372 ft | 0 kts | 217° |
| 2026-05-06 17:34 | 4.69988 | -74.14117 | 8372 ft | 3 kts | 218° |
| 2026-05-06 17:35 | 4.70004 | -74.14105 | 8372 ft | 3 kts | 227° |
| 2026-05-06 17:35 | 4.70017 | -74.14090 | 8372 ft | 3 kts | 240° |
| 2026-05-06 17:35 | 4.70027 | -74.14074 | 8372 ft | 3 kts | 257° |
| 2026-05-06 17:36 | 4.70028 | -74.14037 | 8372 ft | 3 kts | 296° |
| 2026-05-06 17:36 | 4.70019 | -74.14020 | 8372 ft | 3 kts | 308° |
| 2026-05-06 17:36 | 4.70006 | -74.14004 | 8372 ft | 3 kts | 312° |
| 2026-05-06 17:36 | 4.69993 | -74.13990 | 8372 ft | 1 kts | 307° |
| 2026-05-06 17:37 | 4.69992 | -74.13989 | 8372 ft | 0 kts | 307° |
| 2026-05-06 17:39 | 4.69993 | -74.13990 | 8371 ft | 1 kts | 307° |
| 2026-05-06 17:39 | 4.70005 | -74.14005 | 8372 ft | 5 kts | 308° |
| 2026-05-06 17:39 | 4.70035 | -74.14023 | 8372 ft | 6 kts | 341° |
| 2026-05-06 17:40 | 4.70090 | -74.14022 | 8372 ft | 8 kts | 356° |
| 2026-05-06 17:40 | 4.70126 | -74.14037 | 8372 ft | 2 kts | 328° |
| 2026-05-06 17:40 | 4.70140 | -74.14060 | 8372 ft | 6 kts | 306° |
| 2026-05-06 17:40 | 4.70172 | -74.14105 | 8372 ft | 10 kts | 305° |
| 2026-05-06 17:41 | 4.70223 | -74.14175 | 8372 ft | 15 kts | 306° |
| 2026-05-06 17:41 | 4.70294 | -74.14269 | 8372 ft | 19 kts | 307° |
| 2026-05-06 17:41 | 4.70379 | -74.14382 | 8372 ft | 16 kts | 306° |
| 2026-05-06 17:41 | 4.70384 | -74.14388 | 8372 ft | 0 kts | 305° |
| 2026-05-06 17:42 | 4.70384 | -74.14400 | 8372 ft | 4 kts | 281° |
| 2026-05-06 17:42 | 4.70371 | -74.14439 | 8372 ft | 7 kts | 238° |
| 2026-05-06 17:42 | 4.70331 | -74.14474 | 8372 ft | 8 kts | 219° |
| 2026-05-06 17:42 | 4.70282 | -74.14511 | 8372 ft | 9 kts | 216° |
| 2026-05-06 17:43 | 4.70227 | -74.14553 | 8372 ft | 10 kts | 217° |
| 2026-05-06 17:43 | 4.70167 | -74.14598 | 8372 ft | 11 kts | 217° |
| 2026-05-06 17:43 | 4.70102 | -74.14646 | 8372 ft | 12 kts | 217° |
| 2026-05-06 17:43 | 4.70031 | -74.14699 | 8372 ft | 13 kts | 217° |
| 2026-05-06 17:44 | 4.69958 | -74.14755 | 8372 ft | 14 kts | 217° |
| 2026-05-06 17:44 | 4.69880 | -74.14814 | 8372 ft | 14 kts | 217° |
| 2026-05-06 17:44 | 4.69811 | -74.14884 | 8372 ft | 14 kts | 252° |
| 2026-05-06 17:44 | 4.69848 | -74.14967 | 8372 ft | 13 kts | 305° |
| 2026-05-06 17:45 | 4.69907 | -74.15047 | 8372 ft | 16 kts | 307° |
| 2026-05-06 17:45 | 4.69983 | -74.15146 | 8372 ft | 20 kts | 307° |
| 2026-05-06 17:45 | 4.70074 | -74.15266 | 8372 ft | 23 kts | 307° |
| 2026-05-06 17:45 | 4.70179 | -74.15404 | 8371 ft | 26 kts | 307° |
| 2026-05-06 17:46 | 4.70292 | -74.15553 | 8371 ft | 27 kts | 307° |
| 2026-05-06 17:46 | 4.70401 | -74.15699 | 8372 ft | 26 kts | 307° |
| 2026-05-06 17:46 | 4.70508 | -74.15840 | 8372 ft | 25 kts | 307° |
| 2026-05-06 17:46 | 4.70613 | -74.15978 | 8372 ft | 25 kts | 307° |
| 2026-05-06 17:47 | 4.70715 | -74.16113 | 8372 ft | 24 kts | 307° |
| 2026-05-06 17:47 | 4.70816 | -74.16245 | 8372 ft | 24 kts | 307° |
| 2026-05-06 17:47 | 4.70914 | -74.16377 | 8372 ft | 23 kts | 307° |
| 2026-05-06 17:47 | 4.71013 | -74.16507 | 8372 ft | 23 kts | 307° |
| 2026-05-06 17:48 | 4.71110 | -74.16635 | 8372 ft | 23 kts | 307° |
| 2026-05-06 17:48 | 4.71193 | -74.16751 | 8372 ft | 14 kts | 294° |
| 2026-05-06 17:48 | 4.71154 | -74.16828 | 8371 ft | 10 kts | 220° |
| 2026-05-06 17:48 | 4.71151 | -74.16830 | 8371 ft | 0 kts | 219° |
| 2026-05-06 17:49 | 4.71150 | -74.16831 | 8371 ft | 1 kts | 219° |
| 2026-05-06 17:49 | 4.71122 | -74.16853 | 8370 ft | 9 kts | 217° |
| 2026-05-06 17:50 | 4.71047 | -74.16878 | 8369 ft | 13 kts | 172° |
| 2026-05-06 17:50 | 4.70977 | -74.16819 | 8370 ft | 2 kts | 128° |
| 2026-05-06 17:51 | 4.70977 | -74.16818 | 8370 ft | 0 kts | 128° |
| 2026-05-06 17:51 | 4.70838 | -74.16634 | 8370 ft | 69 kts | 127° |
| 2026-05-06 17:51 | 4.70415 | -74.16077 | 8371 ft | 129 kts | 127° |
| 2026-05-06 17:51 | 4.69780 | -74.15237 | 8372 ft | 170 kts | 127° |
| 2026-05-06 17:52 | 4.69011 | -74.14215 | 8558 ft | 190 kts | 126° |
| 2026-05-06 17:52 | 4.68233 | -74.13177 | 9299 ft | 187 kts | 126° |
| 2026-05-06 17:52 | 4.67705 | -74.12463 | 9583 ft | 199 kts | 124° |
| 2026-05-06 17:52 | 4.66657 | -74.10990 | 10313 ft | 204 kts | 120° |
| 2026-05-06 17:53 | 4.65858 | -74.09761 | 10624 ft | 214 kts | 121° |
| 2026-05-06 17:53 | 4.65021 | -74.08558 | 11220 ft | 207 kts | 124° |
| 2026-05-06 17:53 | 4.64152 | -74.07411 | 11732 ft | 207 kts | 127° |
| 2026-05-06 17:53 | 4.63240 | -74.06279 | 12173 ft | 209 kts | 128° |
| 2026-05-06 17:54 | 4.62325 | -74.05134 | 12629 ft | 211 kts | 126° |
| 2026-05-06 17:54 | 4.61424 | -74.03970 | 13150 ft | 212 kts | 126° |
| 2026-05-06 17:54 | 4.60529 | -74.02789 | 13644 ft | 213 kts | 125° |
| 2026-05-06 17:54 | 4.59637 | -74.01595 | 14108 ft | 214 kts | 124° |
| 2026-05-06 17:55 | 4.58744 | -74.00395 | 14447 ft | 216 kts | 123° |
| 2026-05-06 17:55 | 4.57847 | -73.99178 | 14798 ft | 218 kts | 124° |
| 2026-05-06 17:55 | 4.56946 | -73.97951 | 15147 ft | 220 kts | 124° |
| 2026-05-06 17:55 | 4.56024 | -73.96713 | 15510 ft | 222 kts | 124° |
| 2026-05-06 17:56 | 4.54979 | -73.95561 | 15825 ft | 227 kts | 139° |
| 2026-05-06 17:56 | 4.54059 | -73.95048 | 16073 ft | 231 kts | 156° |
| 2026-05-06 17:56 | 4.52440 | -73.94850 | 16399 ft | 242 kts | 182° |
| 2026-05-06 17:56 | 4.50391 | -73.95828 | 16743 ft | 259 kts | 220° |
| 2026-05-06 17:57 | 4.49395 | -73.97348 | 16806 ft | 266 kts | 250° |
| 2026-05-06 17:57 | 4.49193 | -73.99183 | 16822 ft | 268 kts | 279° |
| 2026-05-06 17:57 | 4.49548 | -74.00389 | 16829 ft | 266 kts | 299° |
| 2026-05-06 17:57 | 4.50846 | -74.02445 | 16846 ft | 264 kts | 309° |
| 2026-05-06 17:58 | 4.51575 | -74.03463 | 16858 ft | 264 kts | 309° |
| 2026-05-06 17:58 | 4.52614 | -74.04988 | 16867 ft | 276 kts | 307° |
| 2026-05-06 17:58 | 4.53668 | -74.06674 | 16882 ft | 292 kts | 304° |
| 2026-05-06 17:58 | 4.54689 | -74.08428 | 16892 ft | 290 kts | 302° |
| 2026-05-06 17:59 | 4.55682 | -74.10189 | 16916 ft | 291 kts | 302° |
| 2026-05-06 17:59 | 4.56670 | -74.11955 | 16922 ft | 291 kts | 302° |
| 2026-05-06 17:59 | 4.57658 | -74.13719 | 16935 ft | 291 kts | 302° |
| 2026-05-06 17:59 | 4.58652 | -74.15485 | 16943 ft | 290 kts | 302° |
| 2026-05-06 18:00 | 4.59648 | -74.17249 | 16949 ft | 290 kts | 302° |
| 2026-05-06 18:00 | 4.60640 | -74.19004 | 16949 ft | 290 kts | 302° |
| 2026-05-06 18:00 | 4.61376 | -74.20882 | 16954 ft | 292 kts | 281° |
| 2026-05-06 18:00 | 4.61353 | -74.22910 | 16946 ft | 292 kts | 258° |
| 2026-05-06 18:01 | 4.60913 | -74.24949 | 16918 ft | 309 kts | 256° |
| 2026-05-06 18:01 | 4.60422 | -74.27123 | 16897 ft | 326 kts | 258° |
| 2026-05-06 18:01 | 4.60182 | -74.29429 | 16981 ft | 340 kts | 266° |
| 2026-05-06 18:01 | 4.60048 | -74.31840 | 17085 ft | 355 kts | 266° |
| 2026-05-06 18:02 | 4.59918 | -74.34328 | 17176 ft | 368 kts | 266° |
| 2026-05-06 18:02 | 4.59781 | -74.36968 | 17279 ft | 380 kts | 266° |
| 2026-05-06 18:02 | 4.59943 | -74.39605 | 17348 ft | 391 kts | 282° |
| 2026-05-06 18:02 | 4.60880 | -74.42190 | 17431 ft | 400 kts | 300° |
| 2026-05-06 18:03 | 4.62505 | -74.44446 | 17764 ft | 400 kts | 311° |
| 2026-05-06 18:03 | 4.64264 | -74.46611 | 18122 ft | 402 kts | 311° |
| 2026-05-06 18:03 | 4.66020 | -74.48808 | 18500 ft | 404 kts | 310° |
| 2026-05-06 18:03 | 4.67764 | -74.51015 | 18845 ft | 405 kts | 310° |
| 2026-05-06 18:04 | 4.69522 | -74.53251 | 19203 ft | 407 kts | 310° |
| 2026-05-06 18:04 | 4.71271 | -74.55482 | 19553 ft | 409 kts | 310° |
| 2026-05-06 18:04 | 4.73031 | -74.57727 | 19918 ft | 411 kts | 310° |
| 2026-05-06 18:04 | 4.74916 | -74.59872 | 20256 ft | 411 kts | 317° |
| 2026-05-06 18:05 | 4.77082 | -74.61766 | 20572 ft | 412 kts | 325° |
| 2026-05-06 18:05 | 4.79405 | -74.63461 | 20914 ft | 413 kts | 326° |
| 2026-05-06 18:05 | 4.81729 | -74.65166 | 21330 ft | 415 kts | 326° |
| 2026-05-06 18:05 | 4.84060 | -74.66887 | 21676 ft | 417 kts | 326° |
| 2026-05-06 18:06 | 4.86391 | -74.68640 | 22035 ft | 420 kts | 324° |
| 2026-05-06 18:06 | 4.88702 | -74.70450 | 22403 ft | 422 kts | 324° |
| 2026-05-06 18:06 | 4.91004 | -74.72280 | 22802 ft | 423 kts | 323° |
| 2026-05-06 18:06 | 4.93176 | -74.74305 | 23134 ft | 428 kts | 314° |
| 2026-05-06 18:07 | 4.94999 | -74.76676 | 23502 ft | 432 kts | 304° |
| 2026-05-06 18:07 | 4.96437 | -74.79333 | 23828 ft | 435 kts | 296° |
| 2026-05-06 18:07 | 4.97737 | -74.82079 | 24177 ft | 437 kts | 297° |
| 2026-05-06 18:07 | 4.99059 | -74.84830 | 24486 ft | 439 kts | 297° |
| 2026-05-06 18:08 | 5.00400 | -74.87592 | 24794 ft | 441 kts | 297° |
| 2026-05-06 18:08 | 5.01749 | -74.90363 | 25112 ft | 443 kts | 297° |
| 2026-05-06 18:08 | 5.03106 | -74.93148 | 25431 ft | 445 kts | 297° |
| 2026-05-06 18:08 | 5.04466 | -74.95943 | 25738 ft | 447 kts | 297° |
| 2026-05-06 18:09 | 5.05838 | -74.98762 | 26012 ft | 450 kts | 297° |
| 2026-05-06 18:09 | 5.07195 | -75.01552 | 26334 ft | 452 kts | 297° |
| 2026-05-06 18:09 | 5.08576 | -75.04390 | 26652 ft | 454 kts | 297° |
| 2026-05-06 18:09 | 5.09964 | -75.07242 | 26956 ft | 456 kts | 297° |
| 2026-05-06 18:10 | 5.11359 | -75.10107 | 27261 ft | 458 kts | 297° |
| 2026-05-06 18:10 | 5.12758 | -75.12984 | 27584 ft | 460 kts | 297° |
| 2026-05-06 18:10 | 5.14165 | -75.15870 | 27868 ft | 462 kts | 297° |
| 2026-05-06 18:10 | 5.15782 | -75.18661 | 28257 ft | 463 kts | 305° |
| 2026-05-06 18:11 | 5.17730 | -75.21244 | 28553 ft | 464 kts | 311° |
| 2026-05-06 18:11 | 5.19892 | -75.23657 | 28844 ft | 466 kts | 313° |
| 2026-05-06 18:11 | 5.22052 | -75.26074 | 29104 ft | 468 kts | 313° |
| 2026-05-06 18:11 | 5.24218 | -75.28519 | 29388 ft | 470 kts | 312° |
| 2026-05-06 18:12 | 5.26396 | -75.30984 | 29696 ft | 472 kts | 312° |
| 2026-05-06 18:12 | 5.28574 | -75.33450 | 29976 ft | 474 kts | 312° |
| 2026-05-06 18:12 | 5.30774 | -75.35940 | 30233 ft | 476 kts | 312° |
| 2026-05-06 18:12 | 5.32978 | -75.38435 | 30481 ft | 478 kts | 312° |
| 2026-05-06 18:13 | 5.35161 | -75.40905 | 30722 ft | 480 kts | 312° |
| 2026-05-06 18:13 | 5.37374 | -75.43409 | 30991 ft | 481 kts | 312° |
| 2026-05-06 18:13 | 5.39604 | -75.45931 | 31239 ft | 483 kts | 312° |
| 2026-05-06 18:13 | 5.41873 | -75.48498 | 31484 ft | 486 kts | 312° |
| 2026-05-06 18:14 | 5.44083 | -75.51000 | 31760 ft | 487 kts | 312° |
| 2026-05-06 18:14 | 5.46343 | -75.53560 | 32019 ft | 489 kts | 312° |
| 2026-05-06 18:14 | 5.48610 | -75.56130 | 32256 ft | 491 kts | 312° |
| 2026-05-06 18:14 | 5.50879 | -75.58702 | 32458 ft | 493 kts | 312° |
| 2026-05-06 18:15 | 5.53155 | -75.61280 | 32643 ft | 495 kts | 312° |
| 2026-05-06 18:15 | 5.55442 | -75.63868 | 32854 ft | 496 kts | 312° |
| 2026-05-06 18:15 | 5.57736 | -75.66463 | 33006 ft | 497 kts | 312° |
| 2026-05-06 18:15 | 5.60035 | -75.69064 | 33038 ft | 500 kts | 312° |
| 2026-05-06 18:16 | 5.64656 | -75.74301 | 33034 ft | 501 kts | 312° |
| 2026-05-06 18:16 | 5.69238 | -75.79566 | 33036 ft | 501 kts | 309° |
| 2026-05-06 18:17 | 5.72956 | -75.85427 | 33035 ft | 501 kts | 296° |
| 2026-05-06 18:17 | 5.75927 | -75.91776 | 33041 ft | 502 kts | 295° |
| 2026-05-06 18:18 | 5.78926 | -75.98111 | 33039 ft | 502 kts | 296° |
| 2026-05-06 18:18 | 5.81930 | -76.04450 | 33037 ft | 502 kts | 295° |
| 2026-05-06 18:19 | 5.84936 | -76.10805 | 33029 ft | 502 kts | 295° |
| 2026-05-06 18:19 | 5.87934 | -76.17147 | 33021 ft | 503 kts | 295° |
| 2026-05-06 18:20 | 5.90911 | -76.23443 | 33027 ft | 504 kts | 296° |
| 2026-05-06 18:20 | 5.93804 | -76.29878 | 33010 ft | 505 kts | 294° |
| 2026-05-06 18:21 | 5.96810 | -76.36252 | 33004 ft | 504 kts | 296° |
| 2026-05-06 18:21 | 5.99847 | -76.42592 | 32996 ft | 503 kts | 295° |
| 2026-05-06 18:22 | 6.02856 | -76.48939 | 32978 ft | 501 kts | 295° |
| 2026-05-06 18:22 | 6.05851 | -76.55267 | 32965 ft | 500 kts | 295° |
| 2026-05-06 18:23 | 6.08862 | -76.61563 | 32953 ft | 499 kts | 295° |
| 2026-05-06 18:23 | 6.11853 | -76.67864 | 32941 ft | 499 kts | 296° |
| 2026-05-06 18:24 | 6.14863 | -76.74148 | 32939 ft | 498 kts | 296° |
| 2026-05-06 18:24 | 6.17832 | -76.80386 | 32931 ft | 498 kts | 296° |
| 2026-05-06 18:25 | 6.20796 | -76.86673 | 32925 ft | 497 kts | 296° |
| 2026-05-06 18:25 | 6.23728 | -76.92947 | 32922 ft | 497 kts | 295° |
| 2026-05-06 18:26 | 6.26662 | -76.99241 | 32921 ft | 496 kts | 295° |
| 2026-05-06 18:26 | 6.29580 | -77.05527 | 32919 ft | 496 kts | 294° |
| 2026-05-06 18:27 | 6.32468 | -77.11811 | 32915 ft | 495 kts | 294° |
| 2026-05-06 18:27 | 6.35392 | -77.18075 | 32902 ft | 494 kts | 295° |
| 2026-05-06 18:28 | 6.38372 | -77.24308 | 32910 ft | 495 kts | 296° |
| 2026-05-06 18:28 | 6.41359 | -77.30541 | 32910 ft | 495 kts | 296° |
| 2026-05-06 18:29 | 6.44322 | -77.36788 | 32906 ft | 495 kts | 296° |
| 2026-05-06 18:29 | 6.47233 | -77.43017 | 32909 ft | 495 kts | 295° |
| 2026-05-06 18:30 | 6.50166 | -77.49272 | 32903 ft | 495 kts | 296° |
| 2026-05-06 18:30 | 6.53114 | -77.55514 | 32904 ft | 495 kts | 295° |
| 2026-05-06 18:31 | 6.56041 | -77.61786 | 32904 ft | 495 kts | 296° |
| 2026-05-06 18:31 | 6.58988 | -77.68055 | 32899 ft | 495 kts | 296° |
| 2026-05-06 18:32 | 6.61941 | -77.74330 | 32895 ft | 496 kts | 296° |
| 2026-05-06 18:32 | 6.64868 | -77.80605 | 32897 ft | 496 kts | 295° |
| 2026-05-06 18:33 | 6.67801 | -77.86903 | 32897 ft | 497 kts | 295° |
| 2026-05-06 18:33 | 6.70744 | -77.93203 | 32900 ft | 497 kts | 295° |
| 2026-05-06 18:34 | 6.73676 | -77.99488 | 32899 ft | 497 kts | 295° |
| 2026-05-06 18:34 | 6.76594 | -78.05759 | 32896 ft | 497 kts | 295° |
| 2026-05-06 18:35 | 6.79524 | -78.12072 | 32894 ft | 498 kts | 295° |
| 2026-05-06 18:35 | 6.82486 | -78.18376 | 32900 ft | 498 kts | 296° |
| 2026-05-06 18:36 | 6.85753 | -78.24530 | 32896 ft | 498 kts | 301° |
| 2026-05-06 18:36 | 6.89302 | -78.30534 | 32898 ft | 499 kts | 301° |
| 2026-05-06 18:37 | 6.92279 | -78.35555 | 32902 ft | 499 kts | 301° |
| 2026-05-06 18:37 | 6.96376 | -78.42536 | 32906 ft | 499 kts | 301° |
| 2026-05-06 18:38 | 6.99903 | -78.48573 | 32908 ft | 499 kts | 301° |
| 2026-05-06 18:38 | 7.03419 | -78.54581 | 32905 ft | 498 kts | 301° |
| 2026-05-06 18:39 | 7.06962 | -78.60591 | 32913 ft | 498 kts | 301° |
| 2026-05-06 18:40 | 7.12253 | -78.69575 | 32912 ft | 496 kts | 301° |
| 2026-05-06 18:40 | 7.15738 | -78.75525 | 32912 ft | 496 kts | 301° |
| 2026-05-06 18:41 | 7.19256 | -78.81498 | 32905 ft | 495 kts | 301° |
| 2026-05-06 18:41 | 7.22772 | -78.87462 | 32904 ft | 494 kts | 301° |
| 2026-05-06 18:42 | 7.26273 | -78.93420 | 32906 ft | 494 kts | 301° |
| 2026-05-06 18:42 | 7.29766 | -78.99382 | 32902 ft | 494 kts | 301° |
| 2026-05-06 18:43 | 7.33232 | -79.05333 | 32902 ft | 493 kts | 300° |
| 2026-05-06 18:43 | 7.36715 | -79.11308 | 32901 ft | 493 kts | 301° |
| 2026-05-06 18:44 | 7.40206 | -79.17252 | 32899 ft | 493 kts | 301° |
| 2026-05-06 18:44 | 7.43105 | -79.22177 | 32906 ft | 492 kts | 301° |
| 2026-05-06 18:45 | 7.46586 | -79.28108 | 32910 ft | 492 kts | 301° |
| 2026-05-06 18:45 | 7.50053 | -79.34035 | 32906 ft | 491 kts | 301° |
| 2026-05-06 18:46 | 7.53514 | -79.39951 | 32907 ft | 490 kts | 301° |
| 2026-05-06 18:46 | 7.56972 | -79.45866 | 32906 ft | 489 kts | 301° |
| 2026-05-06 18:47 | 7.60424 | -79.51758 | 32910 ft | 488 kts | 301° |
| 2026-05-06 18:47 | 7.63876 | -79.57641 | 32906 ft | 488 kts | 302° |
| 2026-05-06 18:48 | 7.67335 | -79.63530 | 32901 ft | 488 kts | 301° |
| 2026-05-06 18:48 | 7.70796 | -79.69423 | 32902 ft | 488 kts | 301° |
| 2026-05-06 18:49 | 7.74221 | -79.75267 | 32897 ft | 488 kts | 301° |
| 2026-05-06 18:49 | 7.77655 | -79.81185 | 32897 ft | 488 kts | 301° |
| 2026-05-06 18:50 | 7.81094 | -79.87098 | 32902 ft | 488 kts | 301° |
| 2026-05-06 18:50 | 7.84540 | -79.92999 | 32901 ft | 488 kts | 301° |
| 2026-05-06 18:51 | 7.87981 | -79.98912 | 32896 ft | 489 kts | 301° |
| 2026-05-06 18:51 | 7.91441 | -80.04831 | 32896 ft | 490 kts | 302° |
| 2026-05-06 18:52 | 7.94931 | -80.10741 | 32889 ft | 491 kts | 302° |
| 2026-05-06 18:52 | 7.98406 | -80.16675 | 32891 ft | 492 kts | 302° |
| 2026-05-06 18:53 | 8.01869 | -80.22638 | 32891 ft | 493 kts | 301° |
| 2026-05-06 18:53 | 8.05344 | -80.28609 | 32891 ft | 494 kts | 301° |
| 2026-05-06 18:54 | 8.08815 | -80.34598 | 32897 ft | 495 kts | 301° |
| 2026-05-06 18:54 | 8.12292 | -80.40597 | 32912 ft | 495 kts | 301° |
| 2026-05-06 18:55 | 8.15789 | -80.46577 | 32903 ft | 494 kts | 302° |
| 2026-05-06 18:55 | 8.19245 | -80.52518 | 32907 ft | 494 kts | 301° |
| 2026-05-06 18:56 | 8.22698 | -80.58516 | 32904 ft | 494 kts | 301° |
| 2026-05-06 18:56 | 8.26163 | -80.64498 | 32908 ft | 493 kts | 301° |
| 2026-05-06 18:57 | 8.29646 | -80.70471 | 32906 ft | 493 kts | 301° |
| 2026-05-06 18:57 | 8.33114 | -80.76453 | 32907 ft | 494 kts | 301° |
| 2026-05-06 18:58 | 8.36587 | -80.82429 | 32914 ft | 493 kts | 301° |
| 2026-05-06 18:58 | 8.40035 | -80.88423 | 32924 ft | 493 kts | 300° |
| 2026-05-06 18:59 | 8.43467 | -80.94392 | 32951 ft | 492 kts | 300° |
| 2026-05-06 18:59 | 8.46923 | -81.00371 | 32938 ft | 491 kts | 301° |
| 2026-05-06 19:00 | 8.50372 | -81.06329 | 32945 ft | 491 kts | 301° |
| 2026-05-06 19:00 | 8.53817 | -81.12274 | 32949 ft | 490 kts | 301° |
| 2026-05-06 19:01 | 8.57253 | -81.18209 | 32952 ft | 489 kts | 301° |
| 2026-05-06 19:01 | 8.60688 | -81.24135 | 32950 ft | 488 kts | 301° |
| 2026-05-06 19:02 | 8.64095 | -81.30023 | 32957 ft | 487 kts | 301° |
| 2026-05-06 19:02 | 8.67502 | -81.35939 | 32959 ft | 487 kts | 301° |
| 2026-05-06 19:03 | 8.70895 | -81.41850 | 32958 ft | 485 kts | 300° |
| 2026-05-06 19:03 | 8.74282 | -81.47738 | 32961 ft | 484 kts | 301° |
| 2026-05-06 19:04 | 8.77680 | -81.53621 | 32960 ft | 484 kts | 300° |
| 2026-05-06 19:04 | 8.81058 | -81.59499 | 32959 ft | 483 kts | 300° |
| 2026-05-06 19:05 | 8.84443 | -81.65385 | 32958 ft | 484 kts | 300° |
| 2026-05-06 19:05 | 8.87824 | -81.71276 | 32954 ft | 485 kts | 300° |
| 2026-05-06 19:06 | 8.91212 | -81.77174 | 32957 ft | 485 kts | 300° |
| 2026-05-06 19:06 | 8.94600 | -81.83074 | 32951 ft | 485 kts | 300° |
| 2026-05-06 19:07 | 8.98015 | -81.88972 | 32949 ft | 486 kts | 301° |
| 2026-05-06 19:07 | 9.01421 | -81.94880 | 32949 ft | 486 kts | 300° |
| 2026-05-06 19:08 | 9.04809 | -82.00795 | 32945 ft | 487 kts | 300° |
| 2026-05-06 19:08 | 9.08190 | -82.06694 | 32952 ft | 487 kts | 300° |
| 2026-05-06 19:09 | 9.11588 | -82.12622 | 32943 ft | 488 kts | 300° |
| 2026-05-06 19:09 | 9.15003 | -82.18556 | 32945 ft | 488 kts | 300° |
| 2026-05-06 19:10 | 9.18388 | -82.24511 | 32940 ft | 488 kts | 300° |
| 2026-05-06 19:10 | 9.21795 | -82.30473 | 32938 ft | 488 kts | 300° |
| 2026-05-06 19:11 | 9.25204 | -82.36419 | 32938 ft | 488 kts | 300° |
| 2026-05-06 19:11 | 9.28605 | -82.42374 | 32954 ft | 489 kts | 300° |
| 2026-05-06 19:12 | 9.32005 | -82.48338 | 32946 ft | 489 kts | 300° |
| 2026-05-06 19:12 | 9.35405 | -82.54296 | 32957 ft | 489 kts | 300° |
| 2026-05-06 19:13 | 9.38791 | -82.60224 | 32970 ft | 489 kts | 300° |
| 2026-05-06 19:13 | 9.42231 | -82.66227 | 32957 ft | 490 kts | 300° |
| 2026-05-06 19:14 | 9.45632 | -82.72160 | 32971 ft | 490 kts | 300° |
| 2026-05-06 19:14 | 9.49047 | -82.78135 | 32956 ft | 491 kts | 300° |
| 2026-05-06 19:15 | 9.52440 | -82.84128 | 32950 ft | 491 kts | 297° |
| 2026-05-06 19:15 | 9.55019 | -82.90513 | 32962 ft | 491 kts | 286° |
| 2026-05-06 19:16 | 9.56722 | -82.97211 | 32526 ft | 492 kts | 284° |
| 2026-05-06 19:16 | 9.57584 | -83.00589 | 32120 ft | 493 kts | 284° |
| 2026-05-06 19:16 | 9.58449 | -83.03962 | 31703 ft | 494 kts | 285° |
| 2026-05-06 19:16 | 9.59312 | -83.07332 | 31196 ft | 494 kts | 285° |
| 2026-05-06 19:17 | 9.60171 | -83.10690 | 30700 ft | 491 kts | 285° |
| 2026-05-06 19:17 | 9.61138 | -83.13997 | 30213 ft | 487 kts | 290° |
| 2026-05-06 19:17 | 9.62302 | -83.17210 | 29682 ft | 483 kts | 291° |
| 2026-05-06 19:17 | 9.63433 | -83.20354 | 29134 ft | 480 kts | 291° |
| 2026-05-06 19:18 | 9.64563 | -83.23526 | 28595 ft | 477 kts | 291° |
| 2026-05-06 19:18 | 9.65695 | -83.26679 | 28072 ft | 475 kts | 291° |
| 2026-05-06 19:18 | 9.66818 | -83.29817 | 27551 ft | 472 kts | 291° |
| 2026-05-06 19:18 | 9.67931 | -83.32939 | 27056 ft | 470 kts | 290° |
| 2026-05-06 19:19 | 9.69024 | -83.36042 | 26565 ft | 467 kts | 290° |
| 2026-05-06 19:19 | 9.70113 | -83.39142 | 26084 ft | 465 kts | 290° |
| 2026-05-06 19:19 | 9.71205 | -83.42234 | 25615 ft | 461 kts | 291° |
| 2026-05-06 19:19 | 9.72285 | -83.45271 | 25149 ft | 455 kts | 291° |
| 2026-05-06 19:20 | 9.73347 | -83.48270 | 24708 ft | 449 kts | 291° |
| 2026-05-06 19:20 | 9.74279 | -83.51276 | 24273 ft | 444 kts | 284° |
| 2026-05-06 19:20 | 9.74768 | -83.54282 | 23860 ft | 439 kts | 276° |
| 2026-05-06 19:20 | 9.74830 | -83.57416 | 23387 ft | 434 kts | 267° |
| 2026-05-06 19:21 | 9.74593 | -83.60444 | 22916 ft | 428 kts | 266° |
| 2026-05-06 19:21 | 9.74367 | -83.63393 | 22455 ft | 422 kts | 266° |
| 2026-05-06 19:21 | 9.74150 | -83.66379 | 21927 ft | 418 kts | 266° |
| 2026-05-06 19:21 | 9.73945 | -83.69263 | 21396 ft | 414 kts | 266° |
| 2026-05-06 19:22 | 9.73742 | -83.72161 | 20862 ft | 408 kts | 266° |
| 2026-05-06 19:22 | 9.73540 | -83.74993 | 20352 ft | 397 kts | 266° |
| 2026-05-06 19:22 | 9.73345 | -83.77743 | 19862 ft | 387 kts | 266° |
| 2026-05-06 19:22 | 9.73157 | -83.80434 | 19401 ft | 377 kts | 266° |
| 2026-05-06 19:23 | 9.72975 | -83.83059 | 18952 ft | 368 kts | 266° |
| 2026-05-06 19:23 | 9.72797 | -83.85620 | 18520 ft | 360 kts | 266° |
| 2026-05-06 19:23 | 9.72610 | -83.88132 | 18076 ft | 359 kts | 265° |
| 2026-05-06 19:23 | 9.72411 | -83.90674 | 17595 ft | 360 kts | 266° |
| 2026-05-06 19:24 | 9.72285 | -83.92337 | 17284 ft | 359 kts | 266° |
| 2026-05-06 19:24 | 9.72064 | -83.95247 | 16736 ft | 355 kts | 265° |
| 2026-05-06 19:24 | 9.71868 | -83.97736 | 16280 ft | 352 kts | 265° |
| 2026-05-06 19:24 | 9.71678 | -84.00196 | 15831 ft | 348 kts | 266° |
| 2026-05-06 19:25 | 9.71491 | -84.02623 | 15408 ft | 344 kts | 265° |
| 2026-05-06 19:25 | 9.71304 | -84.05029 | 14975 ft | 341 kts | 266° |
| 2026-05-06 19:25 | 9.71123 | -84.07420 | 14573 ft | 340 kts | 266° |
| 2026-05-06 19:25 | 9.70942 | -84.09808 | 14166 ft | 339 kts | 265° |
| 2026-05-06 19:26 | 9.70758 | -84.12177 | 13746 ft | 335 kts | 266° |
| 2026-05-06 19:26 | 9.70575 | -84.14525 | 13309 ft | 333 kts | 265° |
| 2026-05-06 19:26 | 9.70392 | -84.16853 | 12852 ft | 329 kts | 265° |
| 2026-05-06 19:26 | 9.70208 | -84.19117 | 12428 ft | 324 kts | 265° |
| 2026-05-06 19:27 | 9.70032 | -84.21419 | 11998 ft | 323 kts | 268° |
| 2026-05-06 19:27 | 9.70244 | -84.23672 | 11601 ft | 320 kts | 284° |
| 2026-05-06 19:27 | 9.70988 | -84.25742 | 11205 ft | 315 kts | 296° |
| 2026-05-06 19:27 | 9.71913 | -84.27739 | 10807 ft | 310 kts | 296° |
| 2026-05-06 19:28 | 9.72803 | -84.29722 | 10428 ft | 309 kts | 296° |
| 2026-05-06 19:28 | 9.73681 | -84.31706 | 10089 ft | 306 kts | 295° |
| 2026-05-06 19:28 | 9.74538 | -84.33664 | 9964 ft | 306 kts | 295° |
| 2026-05-06 19:28 | 9.75404 | -84.35640 | 9910 ft | 307 kts | 295° |
| 2026-05-06 19:29 | 9.76273 | -84.37620 | 9904 ft | 307 kts | 295° |
| 2026-05-06 19:29 | 9.77144 | -84.39592 | 9902 ft | 306 kts | 295° |
| 2026-05-06 19:29 | 9.77990 | -84.41511 | 9899 ft | 288 kts | 295° |
| 2026-05-06 19:29 | 9.78791 | -84.43287 | 9887 ft | 265 kts | 299° |
| 2026-05-06 19:30 | 9.79926 | -84.44612 | 9872 ft | 239 kts | 328° |
| 2026-05-06 19:30 | 9.81369 | -84.45230 | 9683 ft | 223 kts | 349° |
| 2026-05-06 19:30 | 9.82886 | -84.45589 | 9383 ft | 217 kts | 351° |
| 2026-05-06 19:30 | 9.83854 | -84.45813 | 9190 ft | 214 kts | 351° |
| 2026-05-06 19:31 | 9.85283 | -84.46158 | 8926 ft | 208 kts | 349° |
| 2026-05-06 19:31 | 9.86661 | -84.46515 | 8649 ft | 201 kts | 349° |
| 2026-05-06 19:31 | 9.89248 | -84.46427 | 7917 ft | 179 kts | 37° |
| 2026-05-06 19:32 | 9.90050 | -84.45551 | 7624 ft | 162 kts | 59° |
| 2026-05-06 19:32 | 9.90548 | -84.44549 | 7389 ft | 161 kts | 69° |
| 2026-05-06 19:32 | 9.90961 | -84.43472 | 7165 ft | 165 kts | 70° |
| 2026-05-06 19:32 | 9.91366 | -84.42389 | 6943 ft | 163 kts | 70° |
| 2026-05-06 19:33 | 9.91766 | -84.41317 | 6741 ft | 163 kts | 70° |
| 2026-05-06 19:33 | 9.92174 | -84.40233 | 6539 ft | 165 kts | 69° |
| 2026-05-06 19:33 | 9.92580 | -84.39148 | 6327 ft | 165 kts | 69° |
| 2026-05-06 19:33 | 9.92986 | -84.38057 | 6111 ft | 165 kts | 69° |
| 2026-05-06 19:34 | 9.93389 | -84.36976 | 5901 ft | 164 kts | 69° |
| 2026-05-06 19:34 | 9.93795 | -84.35893 | 5695 ft | 165 kts | 69° |
| 2026-05-06 19:34 | 9.94198 | -84.34813 | 5493 ft | 164 kts | 69° |
| 2026-05-06 19:34 | 9.94603 | -84.33724 | 5287 ft | 165 kts | 69° |
| 2026-05-06 19:35 | 9.95009 | -84.32637 | 5076 ft | 164 kts | 69° |
| 2026-05-06 19:35 | 9.95412 | -84.31556 | 4875 ft | 165 kts | 68° |
| 2026-05-06 19:35 | 9.95818 | -84.30469 | 4664 ft | 163 kts | 69° |
| 2026-05-06 19:35 | 9.96217 | -84.29398 | 4457 ft | 163 kts | 68° |
| 2026-05-06 19:36 | 9.96621 | -84.28317 | 4249 ft | 163 kts | 68° |
| 2026-05-06 19:36 | 9.97023 | -84.27242 | 4047 ft | 162 kts | 66° |
| 2026-05-06 19:36 | 9.97436 | -84.26176 | 3852 ft | 164 kts | 70° |
| 2026-05-06 19:36 | 9.97834 | -84.25066 | 3618 ft | 170 kts | 68° |
| 2026-05-06 19:37 | 9.98260 | -84.23939 | 3388 ft | 173 kts | 69° |
| 2026-05-06 19:37 | 9.98685 | -84.22748 | 3118 ft | 183 kts | 72° |
| 2026-05-06 19:37 | 9.99118 | -84.21594 | 3016 ft | 163 kts | 68° |
| 2026-05-06 19:37 | 9.99420 | -84.20811 | 3013 ft | 76 kts | 70° |
| 2026-05-06 19:38 | 9.99508 | -84.20571 | 3012 ft | 14 kts | 69° |
| 2026-05-06 19:38 | 9.99517 | -84.20548 | 3014 ft | 2 kts | 69° |
| 2026-05-06 19:38 | 9.99522 | -84.20535 | 3012 ft | 2 kts | 69° |
| 2026-05-06 19:38 | 9.99527 | -84.20520 | 3012 ft | 2 kts | 69° |
| 2026-05-06 19:39 | 9.99534 | -84.20503 | 3012 ft | 3 kts | 69° |
| 2026-05-06 19:39 | 9.99543 | -84.20479 | 3013 ft | 6 kts | 69° |
| 2026-05-06 19:39 | 9.99585 | -84.20442 | 3014 ft | 10 kts | 16° |
| 2026-05-06 19:39 | 9.99613 | -84.20450 | 3015 ft | 5 kts | 330° |
| 2026-05-06 19:40 | 9.99632 | -84.20470 | 3019 ft | 3 kts | 313° |
| 2026-05-06 19:40 | 9.99654 | -84.20487 | 3025 ft | 5 kts | 324° |
| 2026-05-06 19:40 | 9.99684 | -84.20502 | 3024 ft | 4 kts | 337° |
| 2026-05-06 19:40 | 9.99694 | -84.20507 | 3023 ft | 0 kts | 337° |